Flugplatz Erbach

Für EDNE sind keine METAR/TAF Berichte vorhanden.
Es werden die Flugwettermeldungen vom Flugplatz Laupheim Airport in 13 km Entfernung angezeigt.

Bericht für ETHL

vom 28.02. um 02:20 UTC

Wind 12 kt aus 270°

Sichtweite 8000 m

schwacher Schnee

aufgelockert bewölkt in 1000 ft

aufgebrochene Bewölkung in 2000 ft

aufgebrochene Bewölkung in 4000 ft

Temperatur 0.0°C

Taupunkt -2.0°C

Luftfeuchtigkeit 86%

Luftdruck 1013 hPa

ETHL 280220Z 27012KT 8000 -SN SCT010 BKN020 BKN040 00/M02 Q1013 RESN WHT
Keine Prognose (TAF) verfügbar.
Impressum